createdAt,value
2022-08-19T00:01:59.267Z,98003.03
2022-08-19T00:04:30.323Z,98015.53
2022-08-19T00:06:56.967Z,98015.69
2022-08-19T00:09:25.284Z,98012.38
2022-08-19T00:11:53.187Z,98011.56
2022-08-19T00:14:21.671Z,98007.00
2022-08-19T00:16:49.190Z,98011.06
2022-08-19T00:19:17.062Z,98006.03
2022-08-19T00:21:44.151Z,98006.69
2022-08-19T00:24:12.729Z,98002.19
2022-08-19T00:26:39.839Z,97993.22
2022-08-19T00:29:12.555Z,97987.38
2022-08-19T00:31:39.255Z,98005.69
2022-08-19T00:34:05.708Z,98001.69
2022-08-19T00:36:33.706Z,98005.00
2022-08-19T00:39:00.315Z,98003.09
2022-08-19T00:41:27.319Z,98017.16
2022-08-19T00:44:07.616Z,98009.47
2022-08-19T00:46:37.538Z,98015.56
2022-08-19T00:49:10.762Z,98018.25
2022-08-19T00:51:37.543Z,98024.69
2022-08-19T00:54:04.506Z,98025.84
2022-08-19T00:56:32.008Z,98016.81
2022-08-19T00:58:59.771Z,98018.97
2022-08-19T01:01:27.061Z,98019.75
2022-08-19T01:03:57.835Z,98028.16
2022-08-19T01:06:26.254Z,98020.69
2022-08-19T01:08:52.831Z,98023.03
2022-08-19T01:11:19.363Z,98022.41
2022-08-19T01:13:48.896Z,98019.13
2022-08-19T01:16:19.785Z,98024.00
2022-08-19T01:18:46.206Z,98020.22
2022-08-19T01:21:41.563Z,98028.03
2022-08-19T01:24:08.027Z,98033.81
2022-08-19T01:26:40.674Z,98037.88
2022-08-19T01:29:10.366Z,98041.28
2022-08-19T01:31:40.277Z,98049.88
2022-08-19T01:34:08.402Z,98048.28
2022-08-19T01:36:48.136Z,98054.50
2022-08-19T01:39:20.227Z,98047.47
2022-08-19T01:41:47.636Z,98046.03
2022-08-19T01:44:19.070Z,98055.28
2022-08-19T01:46:48.443Z,98060.69
2022-08-19T01:49:15.918Z,98060.09
2022-08-19T01:51:42.427Z,98060.88
2022-08-19T01:54:10.511Z,98061.19
2022-08-19T01:56:37.314Z,98065.19
2022-08-19T01:59:09.453Z,98074.63
2022-08-19T02:01:36.047Z,98076.50
2022-08-19T02:04:03.320Z,98077.59
2022-08-19T02:06:30.761Z,98078.47
2022-08-19T02:08:57.791Z,98079.00
2022-08-19T02:11:32.825Z,98064.81
2022-08-19T02:14:00.338Z,98059.81
2022-08-19T02:16:27.062Z,98052.03
2022-08-19T02:18:53.669Z,98052.34
2022-08-19T02:21:26.525Z,98051.84
2022-08-19T02:23:53.365Z,98066.28
2022-08-19T02:26:20.345Z,98066.91
2022-08-19T02:28:47.219Z,98083.94
2022-08-19T02:31:19.213Z,98081.94
2022-08-19T02:33:47.357Z,98091.19
2022-08-19T02:36:15.523Z,98091.03
2022-08-19T02:38:42.984Z,98088.69
2022-08-19T02:41:26.869Z,98090.81
2022-08-19T02:44:18.375Z,98089.44
2022-08-19T02:46:42.541Z,98094.75
2022-08-19T02:49:09.476Z,98090.06
2022-08-19T02:51:39.972Z,98100.25
2022-08-19T02:54:08.969Z,98109.44
2022-08-19T02:56:37.787Z,98107.13
2022-08-19T02:59:12.022Z,98105.22
2022-08-19T03:01:41.410Z,98105.22
2022-08-19T03:04:10.737Z,98098.78
2022-08-19T03:06:40.812Z,98100.69
2022-08-19T03:09:08.034Z,98107.13
2022-08-19T03:11:34.946Z,98112.09
2022-08-19T03:14:03.446Z,98110.38
2022-08-19T03:16:33.560Z,98099.50
2022-08-19T03:19:01.112Z,98093.22
2022-08-19T03:21:30.374Z,98081.00
2022-08-19T03:24:03.892Z,98075.88
2022-08-19T03:26:31.025Z,98076.53
2022-08-19T03:29:02.231Z,98080.09
2022-08-19T03:31:43.664Z,98080.72
2022-08-19T03:34:28.648Z,98071.16
2022-08-19T03:36:58.601Z,98072.13
2022-08-19T03:39:28.733Z,98066.31
2022-08-19T03:42:30.205Z,98058.03
2022-08-19T03:44:50.058Z,98058.03
2022-08-19T03:47:17.005Z,98050.69
2022-08-19T03:49:43.933Z,98059.88
2022-08-19T03:52:10.589Z,98060.97
2022-08-19T03:54:38.936Z,98058.78
2022-08-19T03:57:05.859Z,98062.38
2022-08-19T03:59:36.397Z,98067.66
2022-08-19T04:02:10.231Z,98071.69
2022-08-19T04:04:38.777Z,98059.03
2022-08-19T04:07:05.967Z,98058.13
2022-08-19T04:09:35.209Z,98056.56
2022-08-19T04:12:01.913Z,98056.91
2022-08-19T04:14:33.192Z,98048.91
2022-08-19T04:17:00.923Z,98044.84
2022-08-19T04:19:30.559Z,98050.16
2022-08-19T04:21:57.372Z,98061.53
2022-08-19T04:24:24.489Z,98062.44
2022-08-19T04:26:52.493Z,98073.16
2022-08-19T04:29:23.246Z,98080.53
2022-08-19T04:31:50.846Z,98071.69
2022-08-19T04:34:25.672Z,98086.25
2022-08-19T04:36:54.685Z,98085.06
2022-08-19T04:39:44.361Z,98078.16
2022-08-19T04:42:40.092Z,98081.91
2022-08-19T04:45:14.096Z,98091.19
2022-08-19T04:47:47.858Z,98094.00
2022-08-19T04:50:29.145Z,98098.38
2022-08-19T04:52:57.016Z,98105.41
2022-08-19T04:55:26.541Z,98116.50
2022-08-19T04:57:53.696Z,98126.50
2022-08-19T05:00:20.732Z,98127.78
2022-08-19T05:02:47.566Z,98129.44
2022-08-19T05:05:15.567Z,98135.84
2022-08-19T05:07:42.544Z,98136.44
2022-08-19T05:10:09.583Z,98126.94
2022-08-19T05:12:36.820Z,98128.03
2022-08-19T05:15:06.839Z,98126.75
2022-08-19T05:17:38.400Z,98135.84
2022-08-19T05:20:25.894Z,98144.47
2022-08-19T05:22:53.393Z,98140.91
2022-08-19T05:25:21.793Z,98139.53
2022-08-19T05:27:49.034Z,98143.78
2022-08-19T05:30:17.020Z,98150.00
2022-08-19T05:32:43.921Z,98161.53
2022-08-19T05:35:10.734Z,98162.97
2022-08-19T05:37:37.741Z,98165.28
2022-08-19T05:40:05.357Z,98173.53
2022-08-19T05:42:32.100Z,98164.94
2022-08-19T05:44:59.391Z,98158.38
2022-08-19T05:47:26.088Z,98159.78
2022-08-19T05:49:52.767Z,98156.84
2022-08-19T05:52:25.728Z,98164.72
2022-08-19T05:54:57.004Z,98165.97
2022-08-19T05:57:25.881Z,98158.00
2022-08-19T05:59:58.510Z,98157.81
2022-08-19T06:02:31.864Z,98157.66
2022-08-19T06:04:58.608Z,98170.28
2022-08-19T06:07:25.369Z,98170.97
2022-08-19T06:09:59.861Z,98166.50
2022-08-19T06:12:35.594Z,98160.22
2022-08-19T06:15:13.060Z,98154.47
2022-08-19T06:17:39.715Z,98154.16
2022-08-19T06:20:09.767Z,98155.41
2022-08-19T06:22:41.779Z,98155.09
2022-08-19T06:25:10.201Z,98154.94
2022-08-19T06:27:41.971Z,98161.34
2022-08-19T06:30:15.828Z,98163.88
2022-08-19T06:32:43.074Z,98159.94
2022-08-19T06:35:09.803Z,98154.63
2022-08-19T06:37:39.766Z,98156.06
2022-08-19T06:40:09.592Z,98160.09
2022-08-19T06:42:36.355Z,98150.59
2022-08-19T06:45:09.261Z,98162.44
2022-08-19T06:47:36.115Z,98158.19
2022-08-19T06:50:05.391Z,98156.19
2022-08-19T06:52:34.871Z,98164.94
2022-08-19T06:55:06.240Z,98166.84
2022-08-19T06:57:33.730Z,98169.81
2022-08-19T07:00:07.160Z,98162.97
2022-08-19T07:02:37.416Z,98163.41
2022-08-19T07:05:06.716Z,98175.31
2022-08-19T07:07:34.563Z,98172.34
2022-08-19T07:10:03.863Z,98180.31
2022-08-19T07:12:38.033Z,98192.50
2022-08-19T07:15:10.915Z,98196.41
2022-08-19T07:17:40.344Z,98195.66
2022-08-19T07:20:10.166Z,98195.50
2022-08-19T07:22:40.770Z,98201.16
2022-08-19T07:25:09.480Z,98191.88
2022-08-19T07:27:39.570Z,98188.31
2022-08-19T07:30:07.815Z,98186.91
2022-08-19T07:32:38.332Z,98189.28
2022-08-19T07:35:06.792Z,98196.78
2022-08-19T07:37:34.009Z,98195.03
2022-08-19T07:40:02.533Z,98197.28
2022-08-19T07:42:30.866Z,98194.91
2022-08-19T07:44:59.584Z,98195.22
2022-08-19T07:47:48.810Z,98189.09
2022-08-19T07:50:15.576Z,98192.09
2022-08-19T07:52:48.818Z,98193.34
2022-08-19T07:55:42.712Z,98197.56
2022-08-19T07:58:06.075Z,98200.38
2022-08-19T08:00:33.102Z,98196.91
2022-08-19T08:02:59.668Z,98201.94
2022-08-19T08:05:44.793Z,98210.69
2022-08-19T08:08:33.492Z,98213.91
2022-08-19T08:11:01.035Z,98211.00
2022-08-19T08:13:28.869Z,98200.22
2022-08-19T08:15:56.307Z,98205.38
2022-08-19T08:18:27.851Z,98196.34
2022-08-19T08:20:58.085Z,98191.97
2022-08-19T08:23:27.706Z,98190.81
2022-08-19T08:25:57.683Z,98186.44
2022-08-19T08:28:25.570Z,98188.19
2022-08-19T08:30:52.906Z,98184.53
2022-08-19T08:33:29.985Z,98180.38
2022-08-19T08:36:01.311Z,98186.34
2022-08-19T08:38:38.723Z,98184.00
2022-08-19T08:41:23.390Z,98182.00
2022-08-19T08:43:53.912Z,98173.53
2022-08-19T08:46:41.983Z,98173.22
2022-08-19T08:49:21.381Z,98169.00
2022-08-19T08:51:59.524Z,98151.66
2022-08-19T08:54:34.865Z,98160.22
2022-08-19T08:57:05.397Z,98176.38
2022-08-19T08:59:37.685Z,98172.69
2022-08-19T09:02:04.996Z,98173.31
2022-08-19T09:04:31.549Z,98179.19
2022-08-19T09:07:00.866Z,98192.25
2022-08-19T09:09:43.255Z,98189.69
2022-08-19T09:12:39.977Z,98192.34
2022-08-19T09:15:12.819Z,98186.97
2022-08-19T09:17:40.210Z,98184.16
2022-08-19T09:20:11.121Z,98183.56
2022-08-19T09:22:39.924Z,98187.38
2022-08-19T09:25:08.879Z,98187.97
2022-08-19T09:27:42.902Z,98190.47
2022-08-19T09:30:17.407Z,98197.53
2022-08-19T09:32:46.171Z,98189.81
2022-08-19T09:35:14.173Z,98196.91
2022-08-19T09:37:41.565Z,98190.50
2022-08-19T09:40:11.922Z,98195.19
2022-08-19T09:42:39.056Z,98189.84
2022-08-19T09:45:22.261Z,98193.63
2022-08-19T09:47:54.213Z,98193.00
2022-08-19T09:50:22.414Z,98204.13
2022-08-19T09:52:53.960Z,98196.16
2022-08-19T09:55:22.200Z,98196.78
2022-08-19T09:57:50.756Z,98185.00
2022-08-19T10:00:17.601Z,98186.72
2022-08-19T10:02:44.644Z,98181.53
2022-08-19T10:05:31.343Z,98183.22
2022-08-19T10:07:58.317Z,98178.38
2022-08-19T10:10:25.272Z,98187.81
2022-08-19T10:12:53.194Z,98182.81
2022-08-19T10:15:28.823Z,98193.47
2022-08-19T10:17:56.573Z,98189.19
2022-08-19T10:20:25.907Z,98194.03
2022-08-19T10:22:53.349Z,98191.75
2022-08-19T10:25:20.526Z,98196.84
2022-08-19T10:27:51.115Z,98190.63
2022-08-19T10:30:18.927Z,98187.75
2022-08-19T10:32:48.541Z,98197.13
2022-08-19T10:35:22.090Z,98191.75
2022-08-19T10:37:57.384Z,98195.47
2022-08-19T10:40:29.041Z,98200.41
2022-08-19T10:42:57.240Z,98193.84
2022-08-19T10:45:26.855Z,98192.28
2022-08-19T10:47:57.694Z,98195.28
2022-08-19T10:50:43.620Z,98200.78
2022-08-19T10:53:10.459Z,98199.78
2022-08-19T10:55:56.027Z,98204.53
2022-08-19T10:58:27.174Z,98200.75
2022-08-19T11:00:56.150Z,98206.25
2022-08-19T11:03:23.678Z,98194.78
2022-08-19T11:06:01.530Z,98192.56
2022-08-19T11:08:28.578Z,98190.47
2022-08-19T11:10:58.425Z,98186.53
2022-08-19T11:13:25.497Z,98199.16
2022-08-19T11:16:07.393Z,98202.31
2022-08-19T11:18:44.244Z,98194.66
2022-08-19T11:21:18.408Z,98197.50
2022-08-19T11:23:46.020Z,98193.63
2022-08-19T11:26:12.848Z,98203.19
2022-08-19T11:28:39.679Z,98194.72
2022-08-19T11:31:14.998Z,98192.72
2022-08-19T11:33:42.284Z,98190.72
2022-08-19T11:36:15.148Z,98194.72
2022-08-19T11:38:41.882Z,98189.91
2022-08-19T11:41:09.046Z,98192.88
2022-08-19T11:43:37.597Z,98193.22
2022-08-19T11:46:10.691Z,98200.91
2022-08-19T11:48:38.329Z,98193.41
2022-08-19T11:51:07.803Z,98197.31
2022-08-19T11:53:35.594Z,98197.94
2022-08-19T11:56:03.723Z,98201.22
2022-08-19T11:58:30.550Z,98204.28
2022-08-19T12:00:57.555Z,98203.38
2022-08-19T12:03:24.560Z,98216.50
2022-08-19T12:05:51.665Z,98223.47
2022-08-19T12:08:19.089Z,98229.84
2022-08-19T12:10:46.573Z,98237.38
2022-08-19T12:13:19.610Z,98233.66
2022-08-19T12:15:48.469Z,98233.94
2022-08-19T12:18:16.086Z,98241.34
2022-08-19T12:20:44.167Z,98241.84
2022-08-19T12:23:11.365Z,98243.91
2022-08-19T12:25:51.238Z,98246.31
2022-08-19T12:28:21.644Z,98238.50
2022-08-19T12:30:51.168Z,98246.03
2022-08-19T12:33:19.190Z,98243.91
2022-08-19T12:35:47.475Z,98244.25
2022-08-19T12:38:15.571Z,98232.38
2022-08-19T12:40:42.357Z,98240.63
2022-08-19T12:43:09.430Z,98235.16
2022-08-19T12:45:36.212Z,98238.78
2022-08-19T12:48:32.931Z,98237.59
2022-08-19T12:50:52.207Z,98236.78
2022-08-19T12:53:18.849Z,98238.19
2022-08-19T12:55:45.620Z,98234.28
2022-08-19T12:58:13.534Z,98233.78
2022-08-19T13:00:40.281Z,98242.72
2022-08-19T13:03:06.925Z,98253.00
2022-08-19T13:05:35.135Z,98249.59
2022-08-19T13:08:01.763Z,98247.59
2022-08-19T13:10:35.965Z,98255.34
2022-08-19T13:13:06.759Z,98264.28
2022-08-19T13:15:40.770Z,98251.63
2022-08-19T13:18:10.105Z,98249.13
2022-08-19T13:20:37.826Z,98244.28
2022-08-19T13:23:05.663Z,98248.53
2022-08-19T13:25:32.515Z,98248.56
2022-08-19T13:28:00.211Z,98243.91
2022-08-19T13:30:45.920Z,98246.41
2022-08-19T13:33:12.864Z,98244.50
2022-08-19T13:35:57.903Z,98245.41
2022-08-19T13:38:25.148Z,98250.13
2022-08-19T13:40:53.641Z,98249.66
2022-08-19T13:43:27.577Z,98244.34
2022-08-19T13:45:56.966Z,98254.81
2022-08-19T13:48:27.210Z,98257.03
2022-08-19T13:50:55.021Z,98255.00
2022-08-19T13:53:21.725Z,98250.00
2022-08-19T13:55:52.206Z,98249.19
2022-08-19T13:58:19.205Z,98241.84
2022-08-19T14:00:47.335Z,98243.38
2022-08-19T14:03:14.461Z,98244.63
2022-08-19T14:05:41.142Z,98242.56
2022-08-19T14:08:08.147Z,98250.00
2022-08-19T14:10:35.263Z,98253.91
2022-08-19T14:13:03.983Z,98258.19
2022-08-19T14:15:32.168Z,98257.81
2022-08-19T14:17:59.199Z,98259.06
2022-08-19T14:20:26.542Z,98261.31
2022-08-19T14:22:54.145Z,98256.97
2022-08-19T14:25:26.243Z,98262.31
2022-08-19T14:27:53.358Z,98261.50
2022-08-19T14:30:26.487Z,98265.25
2022-08-19T14:32:53.702Z,98261.16
2022-08-19T14:35:22.147Z,98271.41
2022-08-19T14:37:56.431Z,98272.31
2022-08-19T14:40:26.870Z,98276.53
2022-08-19T14:43:05.424Z,98270.88
2022-08-19T14:45:34.754Z,98272.88
2022-08-19T14:48:03.839Z,98276.50
2022-08-19T14:50:30.429Z,98279.88
2022-08-19T14:53:05.349Z,98271.75
2022-08-19T14:55:42.846Z,98269.75
2022-08-19T14:58:09.858Z,98268.66
2022-08-19T15:00:56.321Z,98264.56
2022-08-19T15:03:22.828Z,98264.09
2022-08-19T15:05:49.340Z,98267.09
2022-08-19T15:08:15.788Z,98274.22
2022-08-19T15:10:42.348Z,98265.19
2022-08-19T15:13:10.840Z,98282.38
2022-08-19T15:15:38.260Z,98276.50
2022-08-19T15:18:04.963Z,98286.28
2022-08-19T15:20:31.890Z,98283.81
2022-08-19T15:23:00.009Z,98283.66
2022-08-19T15:25:28.050Z,98287.00
2022-08-19T15:27:55.046Z,98305.34
2022-08-19T15:30:27.048Z,98298.50
2022-08-19T15:32:54.169Z,98295.88
2022-08-19T15:35:21.270Z,98300.66
2022-08-19T15:37:52.736Z,98302.78
2022-08-19T15:40:21.606Z,98314.94
2022-08-19T15:42:49.835Z,98307.84
2022-08-19T15:45:18.349Z,98319.09
2022-08-19T15:47:45.092Z,98315.59
2022-08-19T15:50:23.866Z,98324.94
2022-08-19T15:53:01.160Z,98320.72
2022-08-19T15:55:34.710Z,98323.47
2022-08-19T15:58:28.277Z,98320.53
2022-08-19T16:01:23.591Z,98325.06
2022-08-19T16:04:13.808Z,98328.91
2022-08-19T16:06:45.430Z,98332.03
2022-08-19T16:09:13.084Z,98334.22
2022-08-19T16:11:39.910Z,98334.88
2022-08-19T16:14:09.272Z,98337.75
2022-08-19T16:16:36.865Z,98337.44
2022-08-19T16:19:10.196Z,98337.44
2022-08-19T16:21:41.503Z,98336.66
2022-08-19T16:24:10.249Z,98338.53
2022-08-19T16:26:36.905Z,98337.75
2022-08-19T16:29:08.966Z,98339.72
2022-08-19T16:31:39.898Z,98344.22
2022-08-19T16:34:06.696Z,98343.53
2022-08-19T16:36:34.057Z,98349.63
2022-08-19T16:39:01.659Z,98349.03
2022-08-19T16:41:28.998Z,98355.63
2022-08-19T16:43:56.031Z,98347.47
2022-08-19T16:46:23.419Z,98353.16
2022-08-19T16:48:53.652Z,98360.50
2022-08-19T16:51:20.381Z,98354.44
2022-08-19T16:53:46.911Z,98360.31
2022-08-19T16:56:13.685Z,98362.38
2022-08-19T16:58:40.961Z,98364.84
2022-08-19T17:01:10.321Z,98372.91
2022-08-19T17:03:39.740Z,98370.81
2022-08-19T17:06:20.813Z,98367.94
2022-08-19T17:08:50.123Z,98368.16
2022-08-19T17:11:19.186Z,98369.59
2022-08-19T17:13:47.964Z,98369.50
2022-08-19T17:16:17.118Z,98366.94
2022-08-19T17:18:45.062Z,98359.66
2022-08-19T17:21:13.238Z,98356.03
2022-08-19T17:23:42.845Z,98352.66
2022-08-19T17:26:16.984Z,98353.47
2022-08-19T17:28:49.652Z,98350.88
2022-08-19T17:31:18.067Z,98355.59
2022-08-19T17:33:48.604Z,98357.72
2022-08-19T17:36:22.208Z,98367.44
2022-08-19T17:38:49.793Z,98368.16
2022-08-19T17:41:17.091Z,98366.38
2022-08-19T17:43:44.358Z,98367.56
2022-08-19T17:46:18.213Z,98367.56
2022-08-19T17:48:52.152Z,98368.97
2022-08-19T17:51:42.400Z,98362.91
2022-08-19T17:54:13.510Z,98368.41
2022-08-19T17:56:42.448Z,98375.75
2022-08-19T17:59:14.035Z,98378.22
2022-08-19T18:01:52.180Z,98378.50
2022-08-19T18:04:23.525Z,98378.13
2022-08-19T18:06:53.536Z,98373.31
2022-08-19T18:09:41.324Z,98383.81
2022-08-19T18:12:11.193Z,98383.34
2022-08-19T18:14:41.619Z,98382.63
2022-08-19T18:17:13.486Z,98385.47
2022-08-19T18:19:43.271Z,98384.09
2022-08-19T18:22:33.633Z,98380.22
2022-08-19T18:25:01.310Z,98378.63
2022-08-19T18:27:28.176Z,98379.09
2022-08-19T18:29:58.010Z,98384.44
2022-08-19T18:32:26.626Z,98384.53
2022-08-19T18:34:54.602Z,98383.22
2022-08-19T18:37:21.651Z,98381.88
2022-08-19T18:40:06.907Z,98382.75
2022-08-19T18:42:52.103Z,98379.91
2022-08-19T18:45:37.593Z,98381.47
2022-08-19T18:48:26.544Z,98388.25
2022-08-19T18:50:55.153Z,98390.59
2022-08-19T18:53:21.692Z,98388.66
2022-08-19T18:55:53.820Z,98388.94
2022-08-19T18:58:25.932Z,98390.28
2022-08-19T19:00:54.514Z,98386.44
2022-08-19T19:03:21.111Z,98392.72
2022-08-19T19:05:48.735Z,98391.75
2022-08-19T19:08:15.514Z,98403.63
2022-08-19T19:10:42.277Z,98417.50
2022-08-19T19:13:09.081Z,98425.75
2022-08-19T19:15:36.991Z,98417.41
2022-08-19T19:18:03.884Z,98422.31
2022-08-19T19:20:36.500Z,98427.81
2022-08-19T19:23:04.100Z,98431.59
2022-08-19T19:25:50.373Z,98428.81
2022-08-19T19:28:25.291Z,98431.16
2022-08-19T19:30:53.873Z,98429.19
2022-08-19T19:33:20.543Z,98434.81
2022-08-19T19:35:47.317Z,98429.50
2022-08-19T19:38:14.001Z,98431.44
2022-08-19T19:40:40.619Z,98442.06
2022-08-19T19:43:10.603Z,98440.19
2022-08-19T19:45:38.310Z,98448.03
2022-08-19T19:48:05.988Z,98448.97
2022-08-19T19:50:32.611Z,98450.75
2022-08-19T19:53:00.553Z,98462.63
2022-08-19T19:55:29.233Z,98459.97
2022-08-19T19:57:57.668Z,98454.19
2022-08-19T20:00:25.431Z,98459.91
2022-08-19T20:02:55.374Z,98459.78
2022-08-19T20:05:23.067Z,98463.03
2022-08-19T20:08:10.194Z,98471.91
2022-08-19T20:10:37.673Z,98479.50
2022-08-19T20:13:05.245Z,98480.06
2022-08-19T20:15:32.291Z,98482.19
2022-08-19T20:18:04.158Z,98482.00
2022-08-19T20:20:31.698Z,98482.56
2022-08-19T20:22:58.662Z,98496.25
2022-08-19T20:25:25.289Z,98496.16
2022-08-19T20:27:52.053Z,98496.25
2022-08-19T20:30:21.654Z,98493.75
2022-08-19T20:32:50.542Z,98497.13
2022-08-19T20:35:19.853Z,98491.03
2022-08-19T20:37:46.626Z,98487.94
2022-08-19T20:40:14.901Z,98492.75
2022-08-19T20:42:43.223Z,98484.94
2022-08-19T20:45:21.561Z,98490.16
2022-08-19T20:47:58.939Z,98491.03
2022-08-19T20:50:26.026Z,98492.16
2022-08-19T20:52:56.562Z,98489.72
2022-08-19T20:55:23.240Z,98484.50
2022-08-19T20:57:49.875Z,98476.13
2022-08-19T21:00:16.602Z,98481.63
2022-08-19T21:02:43.104Z,98484.69
2022-08-19T21:05:09.673Z,98487.78
2022-08-19T21:07:39.017Z,98485.13
2022-08-19T21:10:07.121Z,98487.38
2022-08-19T21:12:33.908Z,98489.72
2022-08-19T21:15:01.140Z,98491.88
2022-08-19T21:17:28.221Z,98500.38
2022-08-19T21:19:56.078Z,98493.09
2022-08-19T21:22:31.282Z,98501.47
2022-08-19T21:24:58.525Z,98493.16
2022-08-19T21:27:31.698Z,98493.75
2022-08-19T21:30:02.147Z,98488.94
2022-08-19T21:32:30.821Z,98491.88
2022-08-19T21:34:57.602Z,98489.16
2022-08-19T21:37:26.156Z,98488.09
2022-08-19T21:39:56.970Z,98488.03
2022-08-19T21:42:24.246Z,98495.88
2022-08-19T21:44:54.495Z,98494.53
2022-08-19T21:47:21.376Z,98489.38
2022-08-19T21:49:48.582Z,98501.53
2022-08-19T21:52:22.044Z,98501.09
2022-08-19T21:54:48.862Z,98499.38
2022-08-19T21:57:15.971Z,98498.31
2022-08-19T21:59:44.169Z,98500.38
2022-08-19T22:02:20.367Z,98496.88
2022-08-19T22:04:49.824Z,98494.53
2022-08-19T22:07:16.522Z,98490.03
2022-08-19T22:09:45.529Z,98491.94
2022-08-19T22:12:31.674Z,98489.03
2022-08-19T22:15:00.116Z,98489.50
2022-08-19T22:17:29.986Z,98486.78
2022-08-19T22:19:57.374Z,98492.81
2022-08-19T22:22:27.669Z,98493.53
2022-08-19T22:25:00.048Z,98500.63
2022-08-19T22:27:26.705Z,98501.19
2022-08-19T22:29:53.428Z,98513.72
2022-08-19T22:32:28.046Z,98514.78
2022-08-19T22:34:57.694Z,98514.44
2022-08-19T22:37:24.484Z,98519.00
2022-08-19T22:39:51.106Z,98519.50
2022-08-19T22:42:20.209Z,98508.63
2022-08-19T22:44:46.783Z,98505.47
2022-08-19T22:47:13.637Z,98514.19
2022-08-19T22:49:40.415Z,98516.78
2022-08-19T22:52:18.308Z,98512.63
2022-08-19T22:54:54.010Z,98516.84
2022-08-19T22:57:21.897Z,98509.13
2022-08-19T22:59:50.541Z,98506.97
2022-08-19T23:02:31.318Z,98508.69
2022-08-19T23:05:02.467Z,98507.53
2022-08-19T23:07:29.554Z,98511.28
2022-08-19T23:09:56.438Z,98518.69
2022-08-19T23:12:30.589Z,98512.81
2022-08-19T23:15:12.964Z,98505.34
2022-08-19T23:17:40.861Z,98501.09
2022-08-19T23:20:14.292Z,98495.22
2022-08-19T23:22:42.856Z,98490.38
2022-08-19T23:25:13.151Z,98483.03
2022-08-19T23:27:58.462Z,98494.75
2022-08-19T23:30:27.603Z,98501.16
2022-08-19T23:33:12.353Z,98496.66
2022-08-19T23:35:41.165Z,98495.59
2022-08-19T23:38:09.276Z,98484.25
2022-08-19T23:40:38.743Z,98482.34
2022-08-19T23:43:08.209Z,98486.06
2022-08-19T23:45:40.758Z,98495.59
2022-08-19T23:48:18.250Z,98485.78
2022-08-19T23:50:45.134Z,98493.66
2022-08-19T23:53:14.100Z,98485.28
2022-08-19T23:55:44.213Z,98490.81
2022-08-19T23:58:16.249Z,98506.16
